sensor_id;sensor_type;location;lat;lon;timestamp;temperature;humidity
19781;DHT22;10050;55.492;13.506;2023-03-23T00:01:16;8.70;99.90
19781;DHT22;10050;55.492;13.506;2023-03-23T00:03:49;8.70;99.90
19781;DHT22;10050;55.492;13.506;2023-03-23T00:06:16;8.70;99.90
19781;DHT22;10050;55.492;13.506;2023-03-23T00:08:45;8.70;99.90
19781;DHT22;10050;55.492;13.506;2023-03-23T00:11:19;8.70;99.90
19781;DHT22;10050;55.492;13.506;2023-03-23T00:13:46;8.70;99.90
19781;DHT22;10050;55.492;13.506;2023-03-23T00:16:13;8.70;99.90
19781;DHT22;10050;55.492;13.506;2023-03-23T00:18:54;8.70;99.90
19781;DHT22;10050;55.492;13.506;2023-03-23T00:21:22;8.70;99.90
19781;DHT22;10050;55.492;13.506;2023-03-23T00:24:02;8.70;99.90
19781;DHT22;10050;55.492;13.506;2023-03-23T00:26:28;8.70;99.90
19781;DHT22;10050;55.492;13.506;2023-03-23T00:28:55;8.60;99.90
19781;DHT22;10050;55.492;13.506;2023-03-23T00:31:21;8.60;99.90
19781;DHT22;10050;55.492;13.506;2023-03-23T00:33:47;8.60;99.90
19781;DHT22;10050;55.492;13.506;2023-03-23T00:36:13;8.60;99.90
19781;DHT22;10050;55.492;13.506;2023-03-23T00:38:41;8.60;99.90
19781;DHT22;10050;55.492;13.506;2023-03-23T00:41:09;8.60;99.90
19781;DHT22;10050;55.492;13.506;2023-03-23T00:43:36;8.50;99.90
19781;DHT22;10050;55.492;13.506;2023-03-23T00:46:07;8.50;99.90
19781;DHT22;10050;55.492;13.506;2023-03-23T00:48:36;8.60;99.90
19781;DHT22;10050;55.492;13.506;2023-03-23T00:51:06;8.50;99.90
19781;DHT22;10050;55.492;13.506;2023-03-23T00:53:35;8.50;99.90
19781;DHT22;10050;55.492;13.506;2023-03-23T00:56:01;8.50;99.90
19781;DHT22;10050;55.492;13.506;2023-03-23T00:58:27;8.50;99.90
19781;DHT22;10050;55.492;13.506;2023-03-23T01:00:53;8.50;99.90
19781;DHT22;10050;55.492;13.506;2023-03-23T01:03:18;8.50;99.90
19781;DHT22;10050;55.492;13.506;2023-03-23T01:05:45;8.50;99.90
19781;DHT22;10050;55.492;13.506;2023-03-23T01:08:13;8.50;99.90
19781;DHT22;10050;55.492;13.506;2023-03-23T01:10:41;8.50;99.90
19781;DHT22;10050;55.492;13.506;2023-03-23T01:13:07;8.50;99.90
19781;DHT22;10050;55.492;13.506;2023-03-23T01:15:33;8.50;99.90
19781;DHT22;10050;55.492;13.506;2023-03-23T01:17:59;8.50;99.90
19781;DHT22;10050;55.492;13.506;2023-03-23T01:20:25;8.50;99.90
19781;DHT22;10050;55.492;13.506;2023-03-23T01:22:52;8.50;99.90
19781;DHT22;10050;55.492;13.506;2023-03-23T01:25:19;8.50;99.90
19781;DHT22;10050;55.492;13.506;2023-03-23T01:27:45;8.50;99.90
19781;DHT22;10050;55.492;13.506;2023-03-23T01:30:12;8.50;99.90
19781;DHT22;10050;55.492;13.506;2023-03-23T01:32:38;8.50;99.90
19781;DHT22;10050;55.492;13.506;2023-03-23T01:35:04;8.50;99.90
19781;DHT22;10050;55.492;13.506;2023-03-23T01:37:31;8.50;99.90
19781;DHT22;10050;55.492;13.506;2023-03-23T01:39:57;8.50;99.90
19781;DHT22;10050;55.492;13.506;2023-03-23T01:42:31;8.50;99.90
19781;DHT22;10050;55.492;13.506;2023-03-23T01:47:51;8.50;99.90
19781;DHT22;10050;55.492;13.506;2023-03-23T01:50:22;8.50;99.90
19781;DHT22;10050;55.492;13.506;2023-03-23T01:52:51;8.50;99.90
19781;DHT22;10050;55.492;13.506;2023-03-23T01:55:19;8.50;99.90
19781;DHT22;10050;55.492;13.506;2023-03-23T01:57:46;8.60;99.90
19781;DHT22;10050;55.492;13.506;2023-03-23T02:00:13;8.60;99.90
19781;DHT22;10050;55.492;13.506;2023-03-23T02:02:43;8.60;99.90
19781;DHT22;10050;55.492;13.506;2023-03-23T02:05:14;8.60;99.90
19781;DHT22;10050;55.492;13.506;2023-03-23T02:07:41;8.60;99.90
19781;DHT22;10050;55.492;13.506;2023-03-23T02:10:08;8.50;99.90
19781;DHT22;10050;55.492;13.506;2023-03-23T02:12:34;8.50;99.90
19781;DHT22;10050;55.492;13.506;2023-03-23T02:15:00;8.50;99.90
19781;DHT22;10050;55.492;13.506;2023-03-23T02:17:48;8.50;99.90
19781;DHT22;10050;55.492;13.506;2023-03-23T02:28:55;8.40;99.90
19781;DHT22;10050;55.492;13.506;2023-03-23T02:34:27;8.40;99.90
19781;DHT22;10050;55.492;13.506;2023-03-23T02:36:58;8.40;99.90
19781;DHT22;10050;55.492;13.506;2023-03-23T02:39:34;8.40;99.90
19781;DHT22;10050;55.492;13.506;2023-03-23T02:42:08;8.30;99.90
19781;DHT22;10050;55.492;13.506;2023-03-23T02:44:37;8.40;99.90
19781;DHT22;10050;55.492;13.506;2023-03-23T02:47:07;8.40;99.90
19781;DHT22;10050;55.492;13.506;2023-03-23T02:49:36;8.40;99.90
19781;DHT22;10050;55.492;13.506;2023-03-23T02:52:10;8.40;99.90
19781;DHT22;10050;55.492;13.506;2023-03-23T02:54:44;8.40;99.90
19781;DHT22;10050;55.492;13.506;2023-03-23T02:57:11;8.40;99.90
19781;DHT22;10050;55.492;13.506;2023-03-23T02:59:37;8.40;99.90
19781;DHT22;10050;55.492;13.506;2023-03-23T03:02:11;8.40;99.90
19781;DHT22;10050;55.492;13.506;2023-03-23T03:04:39;8.40;99.90
19781;DHT22;10050;55.492;13.506;2023-03-23T03:07:28;8.40;99.90
19781;DHT22;10050;55.492;13.506;2023-03-23T03:10:13;8.40;99.90
19781;DHT22;10050;55.492;13.506;2023-03-23T03:12:56;8.40;99.90
19781;DHT22;10050;55.492;13.506;2023-03-23T03:18:07;8.30;99.90
19781;DHT22;10050;55.492;13.506;2023-03-23T03:20:38;8.30;99.90
19781;DHT22;10050;55.492;13.506;2023-03-23T03:23:06;8.30;99.90
19781;DHT22;10050;55.492;13.506;2023-03-23T03:25:33;8.30;99.90
19781;DHT22;10050;55.492;13.506;2023-03-23T03:28:00;8.30;99.90
19781;DHT22;10050;55.492;13.506;2023-03-23T03:30:36;8.40;99.90
19781;DHT22;10050;55.492;13.506;2023-03-23T03:33:02;8.30;99.90
19781;DHT22;10050;55.492;13.506;2023-03-23T03:35:30;8.30;99.90
19781;DHT22;10050;55.492;13.506;2023-03-23T03:37:57;8.30;99.90
19781;DHT22;10050;55.492;13.506;2023-03-23T03:40:29;8.30;99.90
19781;DHT22;10050;55.492;13.506;2023-03-23T03:42:55;8.30;99.90
19781;DHT22;10050;55.492;13.506;2023-03-23T03:45:21;8.30;99.90
19781;DHT22;10050;55.492;13.506;2023-03-23T03:47:46;8.30;99.90
19781;DHT22;10050;55.492;13.506;2023-03-23T03:50:12;8.20;99.90
19781;DHT22;10050;55.492;13.506;2023-03-23T03:52:38;8.30;99.90
19781;DHT22;10050;55.492;13.506;2023-03-23T03:55:06;8.20;99.90
19781;DHT22;10050;55.492;13.506;2023-03-23T03:57:33;8.20;99.90
19781;DHT22;10050;55.492;13.506;2023-03-23T03:59:59;8.30;99.90
19781;DHT22;10050;55.492;13.506;2023-03-23T04:02:28;8.30;99.90
19781;DHT22;10050;55.492;13.506;2023-03-23T04:04:54;8.30;99.90
19781;DHT22;10050;55.492;13.506;2023-03-23T04:07:22;8.30;99.90
19781;DHT22;10050;55.492;13.506;2023-03-23T04:09:51;8.30;99.90
19781;DHT22;10050;55.492;13.506;2023-03-23T04:12:17;8.30;99.90
19781;DHT22;10050;55.492;13.506;2023-03-23T04:14:43;8.30;99.90
19781;DHT22;10050;55.492;13.506;2023-03-23T04:17:08;8.30;99.90
19781;DHT22;10050;55.492;13.506;2023-03-23T04:19:36;8.30;99.90
19781;DHT22;10050;55.492;13.506;2023-03-23T04:22:04;8.30;99.90
19781;DHT22;10050;55.492;13.506;2023-03-23T04:24:33;8.40;99.90
19781;DHT22;10050;55.492;13.506;2023-03-23T04:26:59;8.30;99.90
19781;DHT22;10050;55.492;13.506;2023-03-23T04:29:25;8.40;99.90
19781;DHT22;10050;55.492;13.506;2023-03-23T04:31:52;8.40;99.90
19781;DHT22;10050;55.492;13.506;2023-03-23T04:34:18;8.30;99.90
19781;DHT22;10050;55.492;13.506;2023-03-23T04:36:44;8.40;99.90
19781;DHT22;10050;55.492;13.506;2023-03-23T04:39:12;8.30;99.90
19781;DHT22;10050;55.492;13.506;2023-03-23T04:41:39;8.30;99.90
19781;DHT22;10050;55.492;13.506;2023-03-23T04:44:06;8.30;99.90
19781;DHT22;10050;55.492;13.506;2023-03-23T04:46:32;8.30;99.90
19781;DHT22;10050;55.492;13.506;2023-03-23T04:48:58;8.30;99.90
19781;DHT22;10050;55.492;13.506;2023-03-23T04:51:25;8.30;99.90
19781;DHT22;10050;55.492;13.506;2023-03-23T04:53:53;8.30;99.90
19781;DHT22;10050;55.492;13.506;2023-03-23T04:56:19;8.30;99.90
19781;DHT22;10050;55.492;13.506;2023-03-23T04:58:45;8.30;99.90
19781;DHT22;10050;55.492;13.506;2023-03-23T05:01:12;8.20;99.90
19781;DHT22;10050;55.492;13.506;2023-03-23T05:03:41;8.30;99.90
19781;DHT22;10050;55.492;13.506;2023-03-23T05:06:07;8.20;99.90
19781;DHT22;10050;55.492;13.506;2023-03-23T05:08:36;8.20;99.90
19781;DHT22;10050;55.492;13.506;2023-03-23T05:11:04;8.30;99.90
19781;DHT22;10050;55.492;13.506;2023-03-23T05:13:31;8.30;99.90
19781;DHT22;10050;55.492;13.506;2023-03-23T05:15:57;8.30;99.90
19781;DHT22;10050;55.492;13.506;2023-03-23T05:18:26;8.30;99.90
19781;DHT22;10050;55.492;13.506;2023-03-23T05:20:52;8.20;99.90
19781;DHT22;10050;55.492;13.506;2023-03-23T05:23:18;8.20;99.90
19781;DHT22;10050;55.492;13.506;2023-03-23T05:25:54;8.30;99.90
19781;DHT22;10050;55.492;13.506;2023-03-23T05:28:21;8.20;99.90
19781;DHT22;10050;55.492;13.506;2023-03-23T05:30:47;8.20;99.90
19781;DHT22;10050;55.492;13.506;2023-03-23T05:33:16;8.20;99.90
19781;DHT22;10050;55.492;13.506;2023-03-23T05:35:42;8.20;99.90
19781;DHT22;10050;55.492;13.506;2023-03-23T05:38:09;8.20;99.90
19781;DHT22;10050;55.492;13.506;2023-03-23T05:40:35;8.30;99.90
19781;DHT22;10050;55.492;13.506;2023-03-23T05:43:03;8.20;99.90
19781;DHT22;10050;55.492;13.506;2023-03-23T05:45:29;8.20;99.90
19781;DHT22;10050;55.492;13.506;2023-03-23T05:47:55;8.20;99.90
19781;DHT22;10050;55.492;13.506;2023-03-23T05:50:22;8.20;99.90
19781;DHT22;10050;55.492;13.506;2023-03-23T05:52:48;8.20;99.90
19781;DHT22;10050;55.492;13.506;2023-03-23T05:55:14;8.20;99.90
19781;DHT22;10050;55.492;13.506;2023-03-23T05:57:40;8.20;99.90
19781;DHT22;10050;55.492;13.506;2023-03-23T06:00:06;8.10;99.90
19781;DHT22;10050;55.492;13.506;2023-03-23T06:02:48;8.10;99.90
19781;DHT22;10050;55.492;13.506;2023-03-23T06:05:14;8.20;99.90
19781;DHT22;10050;55.492;13.506;2023-03-23T06:07:42;8.20;99.90
19781;DHT22;10050;55.492;13.506;2023-03-23T06:10:09;8.20;99.90
19781;DHT22;10050;55.492;13.506;2023-03-23T06:12:38;8.20;99.90
19781;DHT22;10050;55.492;13.506;2023-03-23T06:15:04;8.20;99.90
19781;DHT22;10050;55.492;13.506;2023-03-23T06:17:33;8.10;99.90
19781;DHT22;10050;55.492;13.506;2023-03-23T06:19:58;8.10;99.90
19781;DHT22;10050;55.492;13.506;2023-03-23T06:22:24;8.10;99.90
19781;DHT22;10050;55.492;13.506;2023-03-23T06:24:52;8.10;99.90
19781;DHT22;10050;55.492;13.506;2023-03-23T06:27:18;8.10;99.90
19781;DHT22;10050;55.492;13.506;2023-03-23T06:29:43;8.10;99.90
19781;DHT22;10050;55.492;13.506;2023-03-23T06:32:11;8.10;99.90
19781;DHT22;10050;55.492;13.506;2023-03-23T06:34:38;8.10;99.90
19781;DHT22;10050;55.492;13.506;2023-03-23T06:37:04;8.10;99.90
19781;DHT22;10050;55.492;13.506;2023-03-23T06:39:30;8.10;99.90
19781;DHT22;10050;55.492;13.506;2023-03-23T06:41:57;8.20;99.90
19781;DHT22;10050;55.492;13.506;2023-03-23T06:44:24;8.20;99.90
19781;DHT22;10050;55.492;13.506;2023-03-23T06:46:50;8.10;99.90
19781;DHT22;10050;55.492;13.506;2023-03-23T06:49:16;8.20;99.90
19781;DHT22;10050;55.492;13.506;2023-03-23T06:51:42;8.20;99.90
19781;DHT22;10050;55.492;13.506;2023-03-23T06:54:08;8.20;99.90
19781;DHT22;10050;55.492;13.506;2023-03-23T06:56:33;8.30;99.90
19781;DHT22;10050;55.492;13.506;2023-03-23T06:58:59;8.30;99.90
19781;DHT22;10050;55.492;13.506;2023-03-23T07:01:25;8.30;99.90
19781;DHT22;10050;55.492;13.506;2023-03-23T07:03:53;8.30;99.90
19781;DHT22;10050;55.492;13.506;2023-03-23T07:06:21;8.30;99.90
19781;DHT22;10050;55.492;13.506;2023-03-23T07:08:49;8.40;99.90
19781;DHT22;10050;55.492;13.506;2023-03-23T07:11:15;8.40;99.90
19781;DHT22;10050;55.492;13.506;2023-03-23T07:13:41;8.40;99.90
19781;DHT22;10050;55.492;13.506;2023-03-23T07:16:10;8.40;99.90
19781;DHT22;10050;55.492;13.506;2023-03-23T07:18:36;8.50;99.90
19781;DHT22;10050;55.492;13.506;2023-03-23T07:21:02;8.60;99.90
19781;DHT22;10050;55.492;13.506;2023-03-23T07:23:29;8.70;99.90
19781;DHT22;10050;55.492;13.506;2023-03-23T07:25:55;8.70;99.90
19781;DHT22;10050;55.492;13.506;2023-03-23T07:28:22;8.80;99.90
19781;DHT22;10050;55.492;13.506;2023-03-23T07:30:48;8.90;99.90
19781;DHT22;10050;55.492;13.506;2023-03-23T07:33:16;9.00;99.90
19781;DHT22;10050;55.492;13.506;2023-03-23T07:35:42;9.00;99.90
19781;DHT22;10050;55.492;13.506;2023-03-23T07:38:08;9.00;99.90
19781;DHT22;10050;55.492;13.506;2023-03-23T07:40:37;9.10;99.90
19781;DHT22;10050;55.492;13.506;2023-03-23T07:43:03;9.10;99.90
19781;DHT22;10050;55.492;13.506;2023-03-23T07:45:30;9.10;99.90
19781;DHT22;10050;55.492;13.506;2023-03-23T07:47:56;9.20;99.90
19781;DHT22;10050;55.492;13.506;2023-03-23T07:50:22;9.30;99.90
19781;DHT22;10050;55.492;13.506;2023-03-23T07:52:57;9.40;99.90
19781;DHT22;10050;55.492;13.506;2023-03-23T07:55:24;9.40;99.90
19781;DHT22;10050;55.492;13.506;2023-03-23T07:57:50;9.50;99.90
19781;DHT22;10050;55.492;13.506;2023-03-23T08:00:17;9.50;99.90
19781;DHT22;10050;55.492;13.506;2023-03-23T08:02:56;9.60;99.90
19781;DHT22;10050;55.492;13.506;2023-03-23T08:05:23;9.60;99.90
19781;DHT22;10050;55.492;13.506;2023-03-23T08:07:52;9.70;99.90
19781;DHT22;10050;55.492;13.506;2023-03-23T08:10:20;9.70;99.90
19781;DHT22;10050;55.492;13.506;2023-03-23T08:12:51;9.80;99.90
19781;DHT22;10050;55.492;13.506;2023-03-23T08:15:17;9.90;99.90
19781;DHT22;10050;55.492;13.506;2023-03-23T08:17:43;10.00;99.90
19781;DHT22;10050;55.492;13.506;2023-03-23T08:20:11;10.10;99.90
19781;DHT22;10050;55.492;13.506;2023-03-23T08:22:39;10.70;99.90
19781;DHT22;10050;55.492;13.506;2023-03-23T08:25:07;11.80;99.90
19781;DHT22;10050;55.492;13.506;2023-03-23T08:27:33;12.50;99.90
19781;DHT22;10050;55.492;13.506;2023-03-23T08:29:59;13.30;99.90
19781;DHT22;10050;55.492;13.506;2023-03-23T08:32:25;13.70;99.90
19781;DHT22;10050;55.492;13.506;2023-03-23T08:34:52;13.80;99.90
19781;DHT22;10050;55.492;13.506;2023-03-23T08:37:17;13.20;99.90
19781;DHT22;10050;55.492;13.506;2023-03-23T08:39:43;12.50;99.90
19781;DHT22;10050;55.492;13.506;2023-03-23T08:42:10;12.00;99.90
19781;DHT22;10050;55.492;13.506;2023-03-23T08:44:36;11.50;99.90
19781;DHT22;10050;55.492;13.506;2023-03-23T08:47:03;11.30;99.90
19781;DHT22;10050;55.492;13.506;2023-03-23T08:49:31;11.30;99.90
19781;DHT22;10050;55.492;13.506;2023-03-23T08:51:58;11.20;99.90
19781;DHT22;10050;55.492;13.506;2023-03-23T08:54:24;11.20;99.90
19781;DHT22;10050;55.492;13.506;2023-03-23T08:56:50;11.10;99.90
19781;DHT22;10050;55.492;13.506;2023-03-23T08:59:16;11.00;99.90
19781;DHT22;10050;55.492;13.506;2023-03-23T09:01:42;10.80;99.90
19781;DHT22;10050;55.492;13.506;2023-03-23T09:04:08;10.60;99.90
19781;DHT22;10050;55.492;13.506;2023-03-23T09:06:38;10.50;99.90
19781;DHT22;10050;55.492;13.506;2023-03-23T09:09:04;10.40;99.90
19781;DHT22;10050;55.492;13.506;2023-03-23T09:11:34;10.30;99.90
19781;DHT22;10050;55.492;13.506;2023-03-23T09:14:00;10.20;99.90
19781;DHT22;10050;55.492;13.506;2023-03-23T09:16:26;10.10;99.90
19781;DHT22;10050;55.492;13.506;2023-03-23T09:18:52;10.00;99.90
19781;DHT22;10050;55.492;13.506;2023-03-23T09:21:17;9.90;99.90
19781;DHT22;10050;55.492;13.506;2023-03-23T09:23:43;9.70;99.90
19781;DHT22;10050;55.492;13.506;2023-03-23T09:26:10;9.70;99.90
19781;DHT22;10050;55.492;13.506;2023-03-23T09:28:36;9.70;99.90
19781;DHT22;10050;55.492;13.506;2023-03-23T09:31:01;9.70;99.90
19781;DHT22;10050;55.492;13.506;2023-03-23T09:33:27;9.60;99.90
19781;DHT22;10050;55.492;13.506;2023-03-23T09:35:58;9.60;99.90
19781;DHT22;10050;55.492;13.506;2023-03-23T09:38:24;9.60;99.90
19781;DHT22;10050;55.492;13.506;2023-03-23T09:41:14;9.50;99.90
19781;DHT22;10050;55.492;13.506;2023-03-23T09:49:27;9.50;99.90
19781;DHT22;10050;55.492;13.506;2023-03-23T09:52:01;9.70;99.90
19781;DHT22;10050;55.492;13.506;2023-03-23T09:54:40;9.90;99.90
19781;DHT22;10050;55.492;13.506;2023-03-23T10:00:03;10.00;99.90
19781;DHT22;10050;55.492;13.506;2023-03-23T10:07:47;9.90;99.90
19781;DHT22;10050;55.492;13.506;2023-03-23T10:10:14;9.70;99.90
19781;DHT22;10050;55.492;13.506;2023-03-23T10:12:44;9.60;99.90
19781;DHT22;10050;55.492;13.506;2023-03-23T10:25:35;9.50;99.90
19781;DHT22;10050;55.492;13.506;2023-03-23T10:28:09;9.60;99.90
19781;DHT22;10050;55.492;13.506;2023-03-23T10:30:44;9.60;99.90
19781;DHT22;10050;55.492;13.506;2023-03-23T10:36:08;9.50;99.90
19781;DHT22;10050;55.492;13.506;2023-03-23T10:38:45;9.50;99.90
19781;DHT22;10050;55.492;13.506;2023-03-23T10:41:17;9.50;99.90
19781;DHT22;10050;55.492;13.506;2023-03-23T10:43:44;9.50;99.90
19781;DHT22;10050;55.492;13.506;2023-03-23T10:46:33;9.60;99.90
19781;DHT22;10050;55.492;13.506;2023-03-23T10:49:02;9.80;99.90
19781;DHT22;10050;55.492;13.506;2023-03-23T10:51:35;9.90;99.90
19781;DHT22;10050;55.492;13.506;2023-03-23T10:54:03;10.00;99.90
19781;DHT22;10050;55.492;13.506;2023-03-23T10:56:42;10.00;99.90
19781;DHT22;10050;55.492;13.506;2023-03-23T11:01:54;10.20;99.90
19781;DHT22;10050;55.492;13.506;2023-03-23T11:04:20;10.10;99.90
19781;DHT22;10050;55.492;13.506;2023-03-23T11:06:51;10.10;99.90
19781;DHT22;10050;55.492;13.506;2023-03-23T11:09:22;10.10;99.90
19781;DHT22;10050;55.492;13.506;2023-03-23T11:11:58;10.10;99.90
19781;DHT22;10050;55.492;13.506;2023-03-23T11:14:35;10.30;99.90
19781;DHT22;10050;55.492;13.506;2023-03-23T11:17:05;10.40;99.90
19781;DHT22;10050;55.492;13.506;2023-03-23T11:19:36;10.90;99.90
19781;DHT22;10050;55.492;13.506;2023-03-23T11:22:09;11.10;99.90
19781;DHT22;10050;55.492;13.506;2023-03-23T11:24:44;11.10;99.90
19781;DHT22;10050;55.492;13.506;2023-03-23T11:27:11;11.40;99.90
19781;DHT22;10050;55.492;13.506;2023-03-23T11:29:53;11.80;99.90
19781;DHT22;10050;55.492;13.506;2023-03-23T11:32:24;12.00;99.90
19781;DHT22;10050;55.492;13.506;2023-03-23T11:34:57;12.10;99.90
19781;DHT22;10050;55.492;13.506;2023-03-23T11:42:24;12.70;99.90
19781;DHT22;10050;55.492;13.506;2023-03-23T11:45:13;12.60;99.90
19781;DHT22;10050;55.492;13.506;2023-03-23T11:50:24;12.80;99.90
19781;DHT22;10050;55.492;13.506;2023-03-23T11:58:33;13.00;99.90
19781;DHT22;10050;55.492;13.506;2023-03-23T12:01:12;13.00;99.90
19781;DHT22;10050;55.492;13.506;2023-03-23T12:06:25;12.90;99.90
19781;DHT22;10050;55.492;13.506;2023-03-23T12:09:30;13.00;99.90
19781;DHT22;10050;55.492;13.506;2023-03-23T12:12:23;13.10;99.90
19781;DHT22;10050;55.492;13.506;2023-03-23T12:15:08;13.30;99.90
19781;DHT22;10050;55.492;13.506;2023-03-23T12:26:31;13.30;99.90
19781;DHT22;10050;55.492;13.506;2023-03-23T12:29:33;13.40;99.90
19781;DHT22;10050;55.492;13.506;2023-03-23T12:32:24;13.40;99.90
19781;DHT22;10050;55.492;13.506;2023-03-23T12:43:50;13.80;99.90
19781;DHT22;10050;55.492;13.506;2023-03-23T12:46:58;14.10;99.90
19781;DHT22;10050;55.492;13.506;2023-03-23T12:49:32;14.10;99.90
19781;DHT22;10050;55.492;13.506;2023-03-23T12:52:13;13.80;99.90
19781;DHT22;10050;55.492;13.506;2023-03-23T12:54:48;13.80;99.90
19781;DHT22;10050;55.492;13.506;2023-03-23T12:57:36;13.80;99.90
19781;DHT22;10050;55.492;13.506;2023-03-23T13:03:07;14.10;99.90
19781;DHT22;10050;55.492;13.506;2023-03-23T13:05:47;13.90;99.90
19781;DHT22;10050;55.492;13.506;2023-03-23T13:08:27;13.90;99.90
19781;DHT22;10050;55.492;13.506;2023-03-23T13:10:59;14.10;99.90
19781;DHT22;10050;55.492;13.506;2023-03-23T13:13:44;14.20;99.90
19781;DHT22;10050;55.492;13.506;2023-03-23T13:16:20;14.10;99.90
19781;DHT22;10050;55.492;13.506;2023-03-23T13:21:30;14.20;99.90
19781;DHT22;10050;55.492;13.506;2023-03-23T13:24:04;14.10;99.90
19781;DHT22;10050;55.492;13.506;2023-03-23T13:26:31;14.20;99.90
19781;DHT22;10050;55.492;13.506;2023-03-23T13:29:14;14.20;99.90
19781;DHT22;10050;55.492;13.506;2023-03-23T13:31:43;14.40;99.90
19781;DHT22;10050;55.492;13.506;2023-03-23T13:34:24;14.10;99.90
19781;DHT22;10050;55.492;13.506;2023-03-23T13:39:36;13.90;99.90
19781;DHT22;10050;55.492;13.506;2023-03-23T13:44:42;14.10;99.90
19781;DHT22;10050;55.492;13.506;2023-03-23T13:47:34;14.10;99.90
19781;DHT22;10050;55.492;13.506;2023-03-23T13:50:09;13.90;99.90
19781;DHT22;10050;55.492;13.506;2023-03-23T14:03:15;13.90;99.90
19781;DHT22;10050;55.492;13.506;2023-03-23T14:05:43;14.00;99.90
19781;DHT22;10050;55.492;13.506;2023-03-23T14:08:13;14.00;99.90
19781;DHT22;10050;55.492;13.506;2023-03-23T14:10:53;14.00;99.90
19781;DHT22;10050;55.492;13.506;2023-03-23T14:13:30;13.90;99.90
19781;DHT22;10050;55.492;13.506;2023-03-23T14:16:19;13.80;99.90
19781;DHT22;10050;55.492;13.506;2023-03-23T14:21:25;13.80;99.90
19781;DHT22;10050;55.492;13.506;2023-03-23T14:23:51;13.70;99.90
19781;DHT22;10050;55.492;13.506;2023-03-23T14:26:19;13.70;99.90
19781;DHT22;10050;55.492;13.506;2023-03-23T14:28:49;13.60;99.90
19781;DHT22;10050;55.492;13.506;2023-03-23T14:31:35;13.50;99.90
19781;DHT22;10050;55.492;13.506;2023-03-23T14:34:04;13.60;99.90
19781;DHT22;10050;55.492;13.506;2023-03-23T14:36:35;13.60;99.90
19781;DHT22;10050;55.492;13.506;2023-03-23T14:39:24;13.50;99.90
19781;DHT22;10050;55.492;13.506;2023-03-23T14:41:55;13.40;99.90
19781;DHT22;10050;55.492;13.506;2023-03-23T14:44:24;13.40;99.90
19781;DHT22;10050;55.492;13.506;2023-03-23T14:46:52;13.40;99.90
19781;DHT22;10050;55.492;13.506;2023-03-23T14:49:28;13.40;99.90
19781;DHT22;10050;55.492;13.506;2023-03-23T14:51:55;13.50;99.90
19781;DHT22;10050;55.492;13.506;2023-03-23T14:54:23;13.30;99.90
19781;DHT22;10050;55.492;13.506;2023-03-23T14:56:50;13.30;99.90
19781;DHT22;10050;55.492;13.506;2023-03-23T14:59:16;13.10;99.90
19781;DHT22;10050;55.492;13.506;2023-03-23T15:01:42;13.00;99.90
19781;DHT22;10050;55.492;13.506;2023-03-23T15:04:17;13.10;99.90
19781;DHT22;10050;55.492;13.506;2023-03-23T15:07:00;13.00;99.90
19781;DHT22;10050;55.492;13.506;2023-03-23T15:09:27;13.00;99.90
19781;DHT22;10050;55.492;13.506;2023-03-23T15:12:01;13.00;99.90
19781;DHT22;10050;55.492;13.506;2023-03-23T15:14:32;12.90;99.90
19781;DHT22;10050;55.492;13.506;2023-03-23T15:16:59;13.00;99.90
19781;DHT22;10050;55.492;13.506;2023-03-23T15:19:37;12.80;99.90
19781;DHT22;10050;55.492;13.506;2023-03-23T15:22:28;12.70;99.90
19781;DHT22;10050;55.492;13.506;2023-03-23T15:28:14;12.60;99.90
19781;DHT22;10050;55.492;13.506;2023-03-23T15:30:50;12.50;99.90
19781;DHT22;10050;55.492;13.506;2023-03-23T15:33:17;12.50;99.90
19781;DHT22;10050;55.492;13.506;2023-03-23T15:35:49;12.30;99.90
19781;DHT22;10050;55.492;13.506;2023-03-23T15:38:24;12.30;99.90
19781;DHT22;10050;55.492;13.506;2023-03-23T15:40:53;12.30;99.90
19781;DHT22;10050;55.492;13.506;2023-03-23T15:43:28;12.20;99.90
19781;DHT22;10050;55.492;13.506;2023-03-23T15:46:04;12.20;99.90
19781;DHT22;10050;55.492;13.506;2023-03-23T15:51:11;12.00;99.90
19781;DHT22;10050;55.492;13.506;2023-03-23T15:53:38;12.00;99.90
19781;DHT22;10050;55.492;13.506;2023-03-23T15:56:09;11.90;99.90
19781;DHT22;10050;55.492;13.506;2023-03-23T15:58:36;11.80;99.90
19781;DHT22;10050;55.492;13.506;2023-03-23T16:01:06;11.80;99.90
19781;DHT22;10050;55.492;13.506;2023-03-23T16:06:17;11.80;99.90
19781;DHT22;10050;55.492;13.506;2023-03-23T16:08:43;11.60;99.90
19781;DHT22;10050;55.492;13.506;2023-03-23T16:11:14;11.60;99.90
19781;DHT22;10050;55.492;13.506;2023-03-23T16:13:40;11.60;99.90
19781;DHT22;10050;55.492;13.506;2023-03-23T16:16:13;11.50;99.90
19781;DHT22;10050;55.492;13.506;2023-03-23T16:18:40;11.50;99.90
19781;DHT22;10050;55.492;13.506;2023-03-23T16:21:06;11.50;99.90
19781;DHT22;10050;55.492;13.506;2023-03-23T16:23:32;11.40;99.90
19781;DHT22;10050;55.492;13.506;2023-03-23T16:25:58;11.30;99.90
19781;DHT22;10050;55.492;13.506;2023-03-23T16:28:23;11.30;99.90
19781;DHT22;10050;55.492;13.506;2023-03-23T16:30:49;11.20;99.90
19781;DHT22;10050;55.492;13.506;2023-03-23T16:33:15;11.10;99.90
19781;DHT22;10050;55.492;13.506;2023-03-23T16:35:41;11.10;99.90
19781;DHT22;10050;55.492;13.506;2023-03-23T16:38:14;11.10;99.90
19781;DHT22;10050;55.492;13.506;2023-03-23T16:40:44;11.10;99.90
19781;DHT22;10050;55.492;13.506;2023-03-23T16:43:11;10.90;99.90
19781;DHT22;10050;55.492;13.506;2023-03-23T16:45:38;10.90;99.90
19781;DHT22;10050;55.492;13.506;2023-03-23T16:48:04;10.90;99.90
19781;DHT22;10050;55.492;13.506;2023-03-23T16:50:31;10.80;99.90
19781;DHT22;10050;55.492;13.506;2023-03-23T16:52:57;10.70;99.90
19781;DHT22;10050;55.492;13.506;2023-03-23T16:55:23;10.60;99.90
19781;DHT22;10050;55.492;13.506;2023-03-23T16:57:52;10.60;99.90
19781;DHT22;10050;55.492;13.506;2023-03-23T17:00:18;10.40;99.90
19781;DHT22;10050;55.492;13.506;2023-03-23T17:02:49;10.40;99.90
19781;DHT22;10050;55.492;13.506;2023-03-23T17:05:20;10.30;99.90
19781;DHT22;10050;55.492;13.506;2023-03-23T17:07:47;10.30;99.90
19781;DHT22;10050;55.492;13.506;2023-03-23T17:10:14;10.30;99.90
19781;DHT22;10050;55.492;13.506;2023-03-23T17:12:43;10.20;99.90
19781;DHT22;10050;55.492;13.506;2023-03-23T17:15:10;10.20;99.90
19781;DHT22;10050;55.492;13.506;2023-03-23T17:17:36;10.20;99.90
19781;DHT22;10050;55.492;13.506;2023-03-23T17:20:03;10.10;99.90
19781;DHT22;10050;55.492;13.506;2023-03-23T17:22:29;10.10;99.90
19781;DHT22;10050;55.492;13.506;2023-03-23T17:24:55;10.00;99.90
19781;DHT22;10050;55.492;13.506;2023-03-23T17:27:22;9.90;99.90
19781;DHT22;10050;55.492;13.506;2023-03-23T17:29:48;9.90;99.90
19781;DHT22;10050;55.492;13.506;2023-03-23T17:32:14;9.90;99.90
19781;DHT22;10050;55.492;13.506;2023-03-23T17:34:40;9.80;99.90